Flight Track Log - Related Links

Times and Time Zones

All times are in EDT time to prevent confusion due to time zone crossing. See the AAY855 flight status page for this flight to view local times or setup timezone preferences in your user account.

Time Position Orientation Groundspeed Altitude Reporting Facility
EDT Latitude Longitude Course Direction KTS MPH feet Rate Location/Type
Mon 08:05:13 PM 41.5969 -86.3239 131° Southeast 266 306 5,900  Level Chicago Center
Mon 08:06:15 PM 41.5261 -86.2736 152° Southeast 287 330 8,200 2,323 Climbing Chicago Center
Mon 08:07:17 PM 41.4511 -86.2186 151° Southeast 305 351 10,700 1,935 Climbing Chicago Center
Mon 08:08:19 PM 41.3478 -86.1464 152° Southeast 350 403 12,200 1,824 Climbing Chicago Center
Mon 08:09:00 PM 41.2521 -85.6082 131° Southeast  Level FlightAware Approximate
Mon 08:09:22 PM 41.2531 -86.0797 152° Southeast 381 438 14,500  Level Chicago Center
Mon 08:10:00 PM 41.1759 -85.4914 131° Southeast  Level FlightAware Approximate
Mon 08:10:24 PM 41.1578 -86.0119 152° Southeast 386 444 16,200  Level Chicago Center
Mon 08:11:26 PM 41.0600 -85.9433 152° Southeast 395 455 18,400 2,081 Climbing Chicago Center
Mon 08:12:28 PM 40.9381 -85.8575 152° Southeast 414 476 20,500 1,597 Climbing Chicago Center
Mon 08:13:30 PM 40.8364 -85.7869 152° Southeast 416 479 21,700 774 Climbing Chicago Center
Mon 08:14:32 PM 40.7317 -85.7147 152° Southeast 422 486 22,100 629 Climbing Chicago Center
Mon 08:15:34 PM 40.6156 -85.6328 152° Southeast 425 489 23,000 660 Climbing Chicago Center
Mon 08:16:12 PM 40.5511 -85.5872 152° Southeast 430 495 23,200 1,020 Climbing Chicago Center
Mon 08:17:14 PM 40.4422 -85.5131 153° Southeast 435 501 24,700 1,016 Climbing Chicago Center
Mon 08:18:16 PM 40.3381 -85.4183 145° Southeast 455 524 25,300 1,016 Climbing Chicago Center
Mon 08:19:18 PM 40.2367 -85.3178 143° Southeast 458 527 26,800 1,161 Climbing Chicago Center
Mon 08:20:20 PM 40.1242 -85.2406 152° Southeast 453 521 27,700 919 Climbing Chicago Center
Mon 08:21:22 PM 40.0094 -85.1644 153° Southeast 460 529 28,700 1,161 Climbing Chicago Center
Mon 08:22:24 PM 39.8697 -85.0767 154° Southeast 465 535 30,100 1,200 Climbing Chicago Center
Mon 08:22:37 PM 39.8469 -85.0619 154° Southeast 463 533 30,200 911 Climbing Chicago Center
Mon 08:23:43 PM 39.7297 -84.9869 154° Southeast 464 534 31,300 1,031 Climbing Indianapolis Center
Mon 08:24:45 PM 39.6158 -84.9147 154° Southeast 462 532 32,400 1,024 Climbing Indianapolis Center
Mon 08:25:46 PM 39.4897 -84.8350 154° Southeast 459 528 33,400 927 Climbing Indianapolis Center
Mon 08:26:48 PM 39.3744 -84.7625 154° Southeast 459 528 34,300 871 Climbing Indianapolis Center
Mon 08:27:50 PM 39.2600 -84.6900 154° Southeast 459 528 35,200 878 Climbing Indianapolis Center
Mon 08:28:51 PM 39.1467 -84.6186 154° Southeast 459 528 36,100 829 Climbing Indianapolis Center
Mon 08:29:53 PM 39.0342 -84.5489 154° Southeast 457 526 36,900 484 Climbing Indianapolis Center
Mon 08:30:55 PM 38.8983 -84.4633 154° Southeast 457 526 37,100 49 Climbing Indianapolis Center
Mon 08:31:56 PM 38.7875 -84.3956 155° Southeast 447 514 37,000  Descending Indianapolis Center
Mon 08:32:58 PM 38.6756 -84.3292 155° Southeast 447 514 37,100 49 Climbing Indianapolis Center
Mon 08:33:59 PM 38.5539 -84.2936 167° South 447 514 37,100  Level Indianapolis Center
Mon 08:35:01 PM 38.4325 -84.2767 174° South 444 511 37,100 -48 Level Indianapolis Center
Mon 08:36:03 PM 38.3122 -84.2561 172° South 438 504 37,000  Descending Indianapolis Center
Mon 08:37:04 PM 38.1706 -84.2353 173° South 437 503 37,100  Climbing Indianapolis Center
Mon 08:38:06 PM 38.0472 -84.2189 174° South 438 504 37,000 -48 Descending Indianapolis Center
Mon 08:39:08 PM 37.9247 -84.1986 173° South 441 507 37,000 49 Level Indianapolis Center
Mon 08:40:09 PM 37.8022 -84.1783 173° South 441 507 37,100 49 Climbing Indianapolis Center
Mon 08:41:11 PM 37.6781 -84.1586 173° South 445 512 37,100 -48 Level Indianapolis Center
Mon 08:42:13 PM 37.5539 -84.1408 174° South 447 514 37,000 -49 Descending Indianapolis Center
Mon 08:43:14 PM 37.4294 -84.1222 173° South 447 514 37,000 49 Level Indianapolis Center
Mon 08:44:16 PM 37.2839 -84.0994 173° South 448 516 37,100  Climbing Indianapolis Center
Mon 08:45:17 PM 37.1600 -84.0806 173° South 449 517 37,000  Descending Indianapolis Center
Mon 08:46:19 PM 37.0353 -84.0619 173° South 449 517 37,100  Climbing Indianapolis Center
Mon 08:47:20 PM 36.9108 -84.0439 173° South 449 517 37,000 -49 Descending Indianapolis Center
Mon 08:48:22 PM 36.7853 -84.0242 173° South 451 519 37,000 48 Level Indianapolis Center
Mon 08:49:24 PM 36.6606 -84.0056 173° South 451 519 37,100 49 Climbing Indianapolis Center
Mon 08:50:25 PM 36.5142 -84.0022 179° South 451 519 37,100  Level Indianapolis Center
Mon 08:51:27 PM 36.4125 -84.0186 187° South 446 513 37,100 -49 Level Indianapolis Center
Mon 08:52:28 PM 36.2675 -84.0414 187° South 441 507 37,000 -49 Descending Indianapolis Center
Mon 08:53:30 PM 36.1464 -84.0606 187° South 439 505 37,000 48 Level Indianapolis Center
Mon 08:54:32 PM 36.0186 -84.0797 187° South 445 512 37,100  Climbing Atlanta Center
Mon 08:55:32 PM 35.8936 -84.1028 188° South 445 512 37,000  Descending Atlanta Center
Mon 08:56:32 PM 35.7725 -84.1181 186° South 445 512 37,100 50 Climbing Atlanta Center
Mon 08:57:32 PM 35.6472 -84.1383 187° South 445 512 37,100 -50 Level Atlanta Center
Mon 08:58:32 PM 35.5264 -84.1536 186° South 445 512 37,000 -50 Descending Atlanta Center
Mon 08:59:32 PM 35.4072 -84.1739 188° South 445 512 37,000  Level Atlanta Center
Mon 09:00:32 PM 35.2842 -84.1914 187° South 445 512 37,000 50 Level Atlanta Center
Mon 09:01:32 PM 35.1631 -84.2089 187° South 445 512 37,100 50 Climbing Atlanta Center
Mon 09:02:32 PM 35.0422 -84.2289 188° South 445 512 37,100  Level Atlanta Center
Mon 09:03:32 PM 34.9442 -84.2414 186° South 445 512 37,100 -50 Level Atlanta Center
Mon 09:04:32 PM 34.8189 -84.2639 188° South 434 499 37,000 -50 Descending Atlanta Center
Mon 09:05:32 PM 34.6978 -84.2814 187° South 434 499 37,000  Level Atlanta Center
Mon 09:06:32 PM 34.5828 -84.2986 187° South 429 494 37,000  Level Atlanta Center
Mon 09:07:32 PM 34.4619 -84.3133 186° South 429 494 37,000 50 Level Atlanta Center
Mon 09:08:32 PM 34.3367 -84.3331 187° South 434 499 37,100 50 Climbing Atlanta Center
Mon 09:09:32 PM 34.2156 -84.3503 187° South 445 512 37,100  Level Atlanta Center
Mon 09:10:32 PM 34.0881 -84.3700 187° South 452 520 37,100  Level Atlanta Center
Mon 09:11:32 PM 33.9711 -84.3894 188° South 452 520 37,100 -50 Level Atlanta Center
Mon 09:12:32 PM 33.8439 -84.4064 186° South 449 517 37,000 -50 Descending Atlanta Center
Mon 09:13:32 PM 33.7311 -84.4236 187° South 443 510 37,000  Level Atlanta Center
Mon 09:14:32 PM 33.6100 -84.4378 186° South 443 510 37,000  Level Atlanta Center
Mon 09:15:32 PM 33.4742 -84.4347 179° South 443 510 37,000  Level Atlanta Center
Mon 09:16:32 PM 33.3511 -84.4317 179° South 438 504 37,000  Level Atlanta Center
Mon 09:17:32 PM 33.2300 -84.4286 179° South 438 504 37,000  Level Atlanta Center
Mon 09:18:32 PM 33.1111 -84.4281 180° South 438 504 37,000  Level Atlanta Center
Mon 09:19:32 PM 32.9881 -84.4253 179° South 438 504 37,000  Level Atlanta Center
Mon 09:20:32 PM 32.8669 -84.4247 180° South 438 504 37,000 50 Level Atlanta Center
Mon 09:21:32 PM 32.7583 -84.4217 179° South 438 504 37,100 50 Climbing Atlanta Center
Mon 09:22:32 PM 32.6353 -84.4186 179° South 438 504 37,100  Level Atlanta Center
Mon 09:23:32 PM 32.5078 -84.4156 179° South 438 504 37,100 -50 Level Atlanta Center
Mon 09:24:32 PM 32.3847 -84.4103 178° South 438 504 37,000 -50 Descending Atlanta Center
Mon 09:25:32 PM 32.2575 -84.4097 180° South 438 504 37,000 50 Level Atlanta Center
Mon 09:26:32 PM 32.1322 -84.4067 179° South 449 517 37,100 50 Climbing Atlanta Center
Mon 09:27:32 PM 32.0050 -84.4039 179° South 454 522 37,100  Level Atlanta Center
Mon 09:28:32 PM 31.8775 -84.4033 180° South 459 528 37,100 -30 Level Atlanta Center
Mon 09:30:50 PM 31.5708 -84.3947 179° South 457 526 37,000 -30 Descending Jacksonville Center
Mon 09:31:50 PM 31.4503 -84.3561 165° South 457 526 37,000  Level Jacksonville Center
Mon 09:32:50 PM 31.3256 -84.3225 167° South 457 526 37,000  Level Jacksonville Center
Mon 09:33:50 PM 31.2006 -84.2867 166° South 462 532 37,000  Level Jacksonville Center
Mon 09:34:50 PM 31.0778 -84.2508 166° South 462 532 37,000 50 Level Jacksonville Center
Mon 09:35:50 PM 30.9528 -84.2153 166° South 462 532 37,100  Climbing Jacksonville Center
Mon 09:36:50 PM 30.8281 -84.1797 166° South 462 532 37,000 -50 Descending Jacksonville Center
Mon 09:37:50 PM 30.7050 -84.1442 166° South 462 532 37,000 50 Level Jacksonville Center
Mon 09:38:50 PM 30.5781 -84.1086 166° South 467 537 37,100  Climbing Jacksonville Center
Mon 09:39:50 PM 30.4697 -84.0758 165° South 455 524 37,000 -50 Descending Jacksonville Center
Mon 09:40:50 PM 30.3447 -84.0431 167° South 455 524 37,000  Level Jacksonville Center
Mon 09:41:50 PM 30.2178 -84.0081 167° South 455 524 37,000  Level Jacksonville Center
Mon 09:42:50 PM 30.0950 -83.9728 166° South 455 524 37,000  Level Jacksonville Center
Mon 09:43:50 PM 29.9678 -83.9381 167° South 460 529 37,000 -350 Level Jacksonville Center
Mon 09:44:50 PM 29.8450 -83.9056 167° South 460 529 36,300 -850 Descending Jacksonville Center
Mon 09:45:50 PM 29.7306 -83.8422 154° Southeast 460 529 35,300 -1,000 Descending Jacksonville Center
Mon 09:46:50 PM 29.6183 -83.7694 151° Southeast 460 529 34,300 -1,200 Descending Jacksonville Center
Mon 09:47:50 PM 29.5061 -83.6944 150° Southeast 460 529 32,900 -2,000 Descending Jacksonville Center
Mon 09:48:50 PM 29.3833 -83.6172 151° Southeast 460 529 30,300 -2,400 Descending Jacksonville Center
Mon 09:49:50 PM 29.2772 -83.5472 150° Southeast 455 524 28,100 -2,100 Descending Jacksonville Center
Mon 09:50:50 PM 29.1733 -83.4800 151° Southeast 444 511 26,100 -1,850 Descending Jacksonville Center
Mon 09:51:50 PM 29.0714 -83.4128 150° Southeast 433 498 24,400 -1,350 Descending Jacksonville Center
Mon 09:52:50 PM 28.9714 -83.3531 152° Southeast 421 484 23,400 -1,400 Descending Jacksonville Center
Mon 09:53:50 PM 28.8756 -83.2908 150° Southeast 407 468 21,600 -1,800 Descending Jacksonville Center
Mon 09:54:50 PM 28.7819 -83.2314 151° Southeast 396 456 19,800 -1,850 Descending Jacksonville Center
Mon 09:55:50 PM 28.6900 -83.1719 150° Southeast 390 449 17,900 -1,675 Descending Jacksonville Center
Mon 09:57:24 PM 28.5500 -83.0833 151° Southeast 369 425 15,500 -1,558 Descending Tampa TRACON
Mon 09:58:24 PM 28.4667 -83.0333 152° Southeast 352 405 13,900 -1,632 Descending Tampa TRACON
Mon 09:59:18 PM 28.3833 -82.9833 152° Southeast 341 392 12,400 -1,674 Descending Tampa TRACON
Mon 09:59:50 PM 28.3478 -82.9572 147° Southeast 343 395 11,500 -1,419 Descending Miami Center
Mon 10:00:51 PM 28.2725 -82.9086 150° Southeast 318 366 10,200 -1,082 Descending Miami Center
Mon 10:01:52 PM 28.1942 -82.8872 166° South 297 342 9,300 -1,475 Descending Miami Center
Mon 10:02:53 PM 28.1158 -82.8689 168° South 289 333 7,200 -2,033 Descending Miami Center
Mon 10:03:53 PM 28.0403 -82.8483 166° South 285 328 5,200 -2,016 Descending Miami Center
Mon 10:04:55 PM 27.9647 -82.8286 167° South 283 326 3,100 -1,426 Descending Miami Center
Mon 10:05:55 PM 27.8942 -82.8106 167° South 272 313 2,300 -650 Descending Miami Center
Mon 10:06:55 PM 27.8361 -82.7931 165° South 249 287 1,800 -298 Descending Miami Center
Mon 10:07:56 PM 27.8311 -82.7381 96° East 209 241 1,700 -341 Descending Miami Center
Mon 10:08:58 PM 27.8439 -82.6967 71° East 167 192 1,100 -677 Descending Miami Center
Mon 10:10:00 PM 27.8844 -82.6850 14° North 151 174 300 -443 Descending Miami Center
Mon 10:11:00 PM 27.9236 -82.6894 354° North 148 170 200 -100 Descending Miami Center

Login

Don't have an account? Register now (free) for customized features, flight alerts, and more!